Time;durP1;ratioP1;P1;durP2;ratioP2;P2;SDS_P1;SDS_P2;PMS_P1;PMS_P2;Temp;Humidity;BMP_temperature;BMP_pressure;BME280_temperature;BME280_humidity;BME280_pressure;Samples;Min_cycle;Max_cycle;Signal;HPM_P1;HPM_P2
2022/01/11 00:00:38;;;;;;;;;;;5.90;30.70;;;;;;5032769;28;20329;-80
2022/01/11 00:03:05;;;;;;;;;;;6.00;30.80;;;;;;5041624;28;19931;-77
2022/01/11 00:08:02;;;;;;;;;;;6.00;30.80;;;;;;5062114;28;19924;-79
2022/01/11 00:10:38;;;;;;;;;;;5.90;30.90;;;;;;5039554;28;19927;-79
2022/01/11 00:13:05;;;;;;;;;;;5.80;31.10;;;;;;5043781;28;19928;-78
2022/01/11 00:15:31;;;;;;;;;;;5.70;31.30;;;;;;5035395;28;19920;-79
2022/01/11 00:17:59;;;;;;;;;;;5.70;31.30;;;;;;5047295;28;20023;-77
2022/01/11 00:20:28;;;;;;;;;;;5.70;31.10;;;;;;5043785;28;19920;-76
2022/01/11 00:25:28;;;;;;;;;;;5.70;31.30;;;;;;5072748;28;20304;-78
2022/01/11 00:27:56;;;;;;;;;;;5.70;31.30;;;;;;5039968;28;20399;-77
2022/01/11 00:30:24;;;;;;;;;;;5.70;31.70;;;;;;5052714;28;19921;-77
2022/01/11 00:32:54;;;;;;;;;;;5.60;31.80;;;;;;5052518;28;19920;-79
2022/01/11 00:35:28;;;;;;;;;;;5.60;31.50;;;;;;5073506;28;19927;-77
2022/01/11 00:37:55;;;;;;;;;;;5.60;31.30;;;;;;5052487;28;19925;-78
2022/01/11 00:40:22;;;;;;;;;;;5.60;31.80;;;;;;5048544;28;19947;-77
2022/01/11 00:42:50;;;;;;;;;;;5.50;31.80;;;;;;5047284;28;19971;-79
2022/01/11 00:45:17;;;;;;;;;;;5.50;31.20;;;;;;5043586;28;19921;-77
2022/01/11 00:47:44;;;;;;;;;;;5.50;31.40;;;;;;5035845;28;20446;-77
2022/01/11 00:50:11;;;;;;;;;;;5.50;32.60;;;;;;5055039;28;20011;-79
2022/01/11 00:52:38;;;;;;;;;;;5.50;31.50;;;;;;5039506;28;19928;-78
2022/01/11 00:55:05;;;;;;;;;;;5.60;31.00;;;;;;5043379;28;19943;-76
2022/01/11 00:57:31;;;;;;;;;;;5.60;31.20;;;;;;5062652;28;19975;-79
2022/01/11 00:59:58;;;;;;;;;;;5.60;31.10;;;;;;5026941;28;20388;-76
2022/01/11 01:02:25;;;;;;;;;;;5.60;31.50;;;;;;5048889;28;20312;-80
2022/01/11 01:04:52;;;;;;;;;;;5.60;31.20;;;;;;5066240;28;19925;-79
2022/01/11 01:07:19;;;;;;;;;;;5.60;30.50;;;;;;5039098;28;19932;-79
2022/01/11 01:09:59;;;;;;;;;;;5.70;30.60;;;;;;5033911;28;20344;-77
2022/01/11 01:12:25;;;;;;;;;;;5.70;31.00;;;;;;5050205;28;19920;-76
2022/01/11 01:14:52;;;;;;;;;;;5.60;30.90;;;;;;5059176;28;20423;-76
2022/01/11 01:17:19;;;;;;;;;;;5.70;31.20;;;;;;5060196;28;20384;-78
2022/01/11 01:19:46;;;;;;;;;;;5.60;31.40;;;;;;5035812;28;19966;-77
2022/01/11 01:22:13;;;;;;;;;;;5.50;31.70;;;;;;5050052;28;19943;-79
2022/01/11 01:24:39;;;;;;;;;;;5.40;31.80;;;;;;5034691;28;19981;-77
2022/01/11 01:27:06;;;;;;;;;;;5.40;31.90;;;;;;5037980;28;19927;-79
2022/01/11 01:29:33;;;;;;;;;;;5.40;31.70;;;;;;5035406;28;19966;-79
2022/01/11 01:32:01;;;;;;;;;;;5.40;31.60;;;;;;5034085;28;19982;-79
2022/01/11 01:34:27;;;;;;;;;;;5.40;32.20;;;;;;5035896;28;19921;-79
2022/01/11 01:36:54;;;;;;;;;;;5.30;32.10;;;;;;5038483;28;19927;-79
2022/01/11 01:39:21;;;;;;;;;;;5.30;32.40;;;;;;5019344;28;19975;-77
2022/01/11 01:41:48;;;;;;;;;;;5.20;32.70;;;;;;5054074;28;20396;-78
2022/01/11 01:44:15;;;;;;;;;;;5.20;32.40;;;;;;5032880;28;19925;-78
2022/01/11 01:46:42;;;;;;;;;;;5.10;32.40;;;;;;5068007;28;20381;-76
2022/01/11 01:49:15;;;;;;;;;;;5.10;32.70;;;;;;5029647;28;19944;-78
2022/01/11 01:51:42;;;;;;;;;;;5.10;32.70;;;;;;5026848;28;19944;-77
2022/01/11 01:54:09;;;;;;;;;;;5.10;32.70;;;;;;5014527;28;19924;-77
2022/01/11 01:56:36;;;;;;;;;;;5.10;32.50;;;;;;5017632;28;19921;-77
2022/01/11 01:59:03;;;;;;;;;;;5.10;32.90;;;;;;5041437;28;19928;-77
2022/01/11 02:01:35;;;;;;;;;;;5.00;32.90;;;;;;5049032;28;19924;-76
2022/01/11 02:04:02;;;;;;;;;;;5.00;33.10;;;;;;5050832;28;20305;-76
2022/01/11 02:06:29;;;;;;;;;;;5.00;33.10;;;;;;5028946;28;19921;-78
2022/01/11 02:08:56;;;;;;;;;;;5.00;32.80;;;;;;5036801;28;20426;-78
2022/01/11 02:11:24;;;;;;;;;;;5.00;33.20;;;;;;5036170;28;19924;-78
2022/01/11 02:13:51;;;;;;;;;;;4.90;33.20;;;;;;5037726;28;19921;-79
2022/01/11 02:16:21;;;;;;;;;;;4.90;33.20;;;;;;5035267;28;20373;-77
2022/01/11 02:18:49;;;;;;;;;;;4.90;33.60;;;;;;5024414;28;19970;-78
2022/01/11 02:21:16;;;;;;;;;;;4.70;33.90;;;;;;5037494;28;20446;-79
2022/01/11 02:23:43;;;;;;;;;;;4.70;34.40;;;;;;5020490;28;19920;-77
2022/01/11 02:26:10;;;;;;;;;;;4.60;34.50;;;;;;5034571;28;19975;-77
2022/01/11 02:28:37;;;;;;;;;;;4.60;34.40;;;;;;5038695;28;19924;-79
2022/01/11 02:31:07;;;;;;;;;;;4.60;34.40;;;;;;5037318;28;19943;-78
2022/01/11 02:33:36;;;;;;;;;;;4.60;34.30;;;;;;5023045;28;19921;-76
2022/01/11 02:36:04;;;;;;;;;;;4.60;34.30;;;;;;5025703;28;19928;-79
2022/01/11 02:38:31;;;;;;;;;;;4.60;34.30;;;;;;5037100;28;19921;-77
2022/01/11 02:40:58;;;;;;;;;;;4.50;34.50;;;;;;5033602;28;19928;-79
2022/01/11 02:43:25;;;;;;;;;;;4.50;34.50;;;;;;5045318;28;19924;-77
2022/01/11 02:45:52;;;;;;;;;;;4.40;35.00;;;;;;5022823;28;20350;-79
2022/01/11 02:48:21;;;;;;;;;;;4.40;35.20;;;;;;5055392;28;20294;-77
2022/01/11 02:50:48;;;;;;;;;;;4.40;35.10;;;;;;5036388;28;19921;-77
2022/01/11 02:53:17;;;;;;;;;;;4.30;35.20;;;;;;5033211;28;20559;-79
2022/01/11 02:55:44;;;;;;;;;;;4.30;34.90;;;;;;5045716;28;19921;-78
2022/01/11 02:58:11;;;;;;;;;;;4.30;34.90;;;;;;5052474;28;19928;-76
2022/01/11 03:00:40;;;;;;;;;;;4.30;35.20;;;;;;5068596;28;19931;-77
2022/01/11 03:03:11;;;;;;;;;;;4.30;34.80;;;;;;5054607;28;19966;-78
2022/01/11 03:05:48;;;;;;;;;;;4.30;34.90;;;;;;5048470;28;20350;-78
2022/01/11 03:08:15;;;;;;;;;;;4.30;34.80;;;;;;5057728;28;20435;-79
2022/01/11 03:10:42;;;;;;;;;;;4.20;35.20;;;;;;5022603;28;19928;-79
2022/01/11 03:13:10;;;;;;;;;;;4.20;35.20;;;;;;5035016;28;19924;-78
2022/01/11 03:15:38;;;;;;;;;;;4.20;35.20;;;;;;5072676;28;19924;-78
2022/01/11 03:18:05;;;;;;;;;;;4.10;35.30;;;;;;5037936;28;19921;-77
2022/01/11 03:20:32;;;;;;;;;;;4.10;35.30;;;;;;5040359;28;19931;-78
2022/01/11 03:22:59;;;;;;;;;;;4.10;35.10;;;;;;5035792;28;19924;-78
2022/01/11 03:25:26;;;;;;;;;;;4.20;35.20;;;;;;5052690;28;19971;-78
2022/01/11 03:27:54;;;;;;;;;;;4.10;35.20;;;;;;5049701;28;19929;-79
2022/01/11 03:30:21;;;;;;;;;;;4.10;35.40;;;;;;5022887;28;19927;-76
2022/01/11 03:32:48;;;;;;;;;;;4.10;35.70;;;;;;5067332;28;19924;-78
2022/01/11 03:35:14;;;;;;;;;;;4.10;35.20;;;;;;5025589;28;19921;-78
2022/01/11 03:37:42;;;;;;;;;;;4.10;35.10;;;;;;5038922;28;19928;-77
2022/01/11 03:40:10;;;;;;;;;;;4.10;35.50;;;;;;5041084;28;20339;-78
2022/01/11 03:42:38;;;;;;;;;;;4.00;35.70;;;;;;5026973;28;19971;-76
2022/01/11 03:45:07;;;;;;;;;;;4.00;35.30;;;;;;5058249;28;19928;-78
2022/01/11 03:47:35;;;;;;;;;;;4.10;35.40;;;;;;5065879;28;19920;-77
2022/01/11 03:50:05;;;;;;;;;;;4.10;35.60;;;;;;5049273;28;19928;-79
2022/01/11 03:52:32;;;;;;;;;;;4.00;36.00;;;;;;5034709;28;19946;-78
2022/01/11 03:57:30;;;;;;;;;;;4.00;35.80;;;;;;5073371;28;19921;-76
2022/01/11 03:59:59;;;;;;;;;;;4.00;36.00;;;;;;5049300;28;19932;-78
2022/01/11 04:02:26;;;;;;;;;;;3.90;36.20;;;;;;5060497;28;20522;-77
2022/01/11 04:04:53;;;;;;;;;;;3.80;36.40;;;;;;5045262;28;19954;-78
2022/01/11 04:07:21;;;;;;;;;;;3.80;36.30;;;;;;5063833;28;19927;-78
2022/01/11 04:09:49;;;;;;;;;;;3.90;36.00;;;;;;5056320;28;19920;-78
2022/01/11 04:12:15;;;;;;;;;;;3.80;36.70;;;;;;5037633;28;19924;-78
2022/01/11 04:14:42;;;;;;;;;;;3.80;36.60;;;;;;5052687;28;20304;-78
2022/01/11 04:17:10;;;;;;;;;;;3.80;36.30;;;;;;5060803;28;20277;-77
2022/01/11 04:19:37;;;;;;;;;;;3.80;36.30;;;;;;5067942;28;19951;-78
2022/01/11 04:22:03;;;;;;;;;;;3.80;36.60;;;;;;5041760;28;19936;-78
2022/01/11 04:24:31;;;;;;;;;;;3.80;36.70;;;;;;5055758;28;19928;-77
2022/01/11 04:26:57;;;;;;;;;;;3.80;36.60;;;;;;5064457;28;19924;-76
2022/01/11 04:29:24;;;;;;;;;;;3.80;36.70;;;;;;5041817;28;19928;-77
2022/01/11 04:31:52;;;;;;;;;;;3.80;36.70;;;;;;5054343;28;19920;-78
2022/01/11 04:34:20;;;;;;;;;;;3.70;37.00;;;;;;5064180;28;19931;-76
2022/01/11 04:36:47;;;;;;;;;;;3.70;37.20;;;;;;5062200;28;19921;-76
2022/01/11 04:39:14;;;;;;;;;;;3.60;37.10;;;;;;5071534;28;19924;-79
2022/01/11 04:41:41;;;;;;;;;;;3.60;37.60;;;;;;5055179;28;19954;-76
2022/01/11 04:44:08;;;;;;;;;;;3.60;37.40;;;;;;5053516;28;19978;-79
2022/01/11 04:46:35;;;;;;;;;;;3.50;37.90;;;;;;5064827;28;20396;-78
2022/01/11 04:49:03;;;;;;;;;;;3.40;37.80;;;;;;5054829;28;19927;-78
2022/01/11 04:51:33;;;;;;;;;;;3.40;38.20;;;;;;5057439;28;19920;-78
2022/01/11 04:54:00;;;;;;;;;;;3.30;38.00;;;;;;5058264;28;19970;-77
2022/01/11 04:56:27;;;;;;;;;;;3.40;38.00;;;;;;5055845;28;19921;-76
2022/01/11 04:58:54;;;;;;;;;;;3.30;38.60;;;;;;5071801;28;19924;-78
2022/01/11 05:01:21;;;;;;;;;;;3.20;38.80;;;;;;5057395;28;20014;-76
2022/01/11 05:03:48;;;;;;;;;;;3.20;39.00;;;;;;5065849;28;20273;-76
2022/01/11 05:06:15;;;;;;;;;;;3.10;39.00;;;;;;5028168;28;19974;-77
2022/01/11 05:08:45;;;;;;;;;;;3.10;39.10;;;;;;5043456;28;20015;-78
2022/01/11 05:11:12;;;;;;;;;;;3.10;40.10;;;;;;5048105;28;19920;-79
2022/01/11 05:13:39;;;;;;;;;;;3.00;39.20;;;;;;5031659;28;19924;-79
2022/01/11 05:16:06;;;;;;;;;;;3.00;39.70;;;;;;5035453;28;19921;-76
2022/01/11 05:18:36;;;;;;;;;;;2.90;39.60;;;;;;5025524;28;19924;-78
2022/01/11 05:21:03;;;;;;;;;;;2.90;39.40;;;;;;5041138;28;19924;-79
2022/01/11 05:23:30;;;;;;;;;;;2.90;39.30;;;;;;5032687;28;20322;-77
2022/01/11 05:25:57;;;;;;;;;;;2.90;39.40;;;;;;5040955;28;19927;-78
2022/01/11 05:28:23;;;;;;;;;;;2.90;39.60;;;;;;5071050;28;19924;-76
2022/01/11 05:30:50;;;;;;;;;;;2.90;39.60;;;;;;5071900;28;20033;-76
2022/01/11 05:33:17;;;;;;;;;;;2.90;39.70;;;;;;5071221;28;19946;-78
2022/01/11 05:35:44;;;;;;;;;;;2.80;40.10;;;;;;5048655;28;19925;-78
2022/01/11 05:38:11;;;;;;;;;;;2.80;39.80;;;;;;5045053;28;19920;-78
2022/01/11 05:40:38;;;;;;;;;;;2.80;40.00;;;;;;5037401;28;19987;-78
2022/01/11 05:43:06;;;;;;;;;;;2.80;40.30;;;;;;5033369;28;20385;-77
2022/01/11 05:45:33;;;;;;;;;;;2.80;40.30;;;;;;5038018;28;20312;-78
2022/01/11 05:48:03;;;;;;;;;;;2.70;40.30;;;;;;5039743;28;19977;-77
2022/01/11 05:50:31;;;;;;;;;;;2.70;40.10;;;;;;5045700;28;20339;-78
2022/01/11 05:52:58;;;;;;;;;;;2.70;40.20;;;;;;5046838;28;19978;-79
2022/01/11 05:55:24;;;;;;;;;;;2.70;40.60;;;;;;5066852;28;19920;-78
2022/01/11 05:57:54;;;;;;;;;;;2.60;40.90;;;;;;5060049;28;20376;-77
2022/01/11 06:00:21;;;;;;;;;;;2.60;40.40;;;;;;5072128;28;19936;-78
2022/01/11 06:02:52;;;;;;;;;;;2.60;40.60;;;;;;5064092;28;19920;-77
2022/01/11 06:05:19;;;;;;;;;;;2.60;40.40;;;;;;5060921;28;19931;-77
2022/01/11 06:07:46;;;;;;;;;;;2.70;40.30;;;;;;5064168;28;19956;-76
2022/01/11 06:10:14;;;;;;;;;;;2.70;40.20;;;;;;5068163;28;20315;-78
2022/01/11 06:12:41;;;;;;;;;;;2.70;40.60;;;;;;5056535;28;19920;-78
2022/01/11 06:15:09;;;;;;;;;;;2.70;41.00;;;;;;5057946;28;19982;-78
2022/01/11 06:17:35;;;;;;;;;;;2.60;41.10;;;;;;5053415;28;19924;-79
2022/01/11 06:20:03;;;;;;;;;;;2.60;41.10;;;;;;5050942;28;19920;-78
2022/01/11 06:22:30;;;;;;;;;;;2.50;41.40;;;;;;5039941;28;19928;-78
2022/01/11 06:25:04;;;;;;;;;;;2.50;41.30;;;;;;5058143;28;20011;-78
2022/01/11 06:27:31;;;;;;;;;;;2.40;41.10;;;;;;5044972;28;19974;-77
2022/01/11 06:29:58;;;;;;;;;;;2.40;41.30;;;;;;5039851;28;19995;-77
2022/01/11 06:32:25;;;;;;;;;;;2.40;41.50;;;;;;5035422;28;20265;-78
2022/01/11 06:34:53;;;;;;;;;;;2.40;41.10;;;;;;5050066;28;19921;-77
2022/01/11 06:37:20;;;;;;;;;;;2.40;41.40;;;;;;5022415;28;19921;-78
2022/01/11 06:39:47;;;;;;;;;;;2.40;41.40;;;;;;5047048;28;19928;-77
2022/01/11 06:42:14;;;;;;;;;;;2.40;41.40;;;;;;5036746;28;20304;-78
2022/01/11 06:44:42;;;;;;;;;;;2.40;41.60;;;;;;5072492;28;19920;-79
2022/01/11 06:47:10;;;;;;;;;;;2.30;41.50;;;;;;5073336;28;19924;-78
2022/01/11 06:49:37;;;;;;;;;;;2.40;41.30;;;;;;5020399;28;19921;-77
2022/01/11 06:52:05;;;;;;;;;;;2.40;41.10;;;;;;5053898;28;19921;-79
2022/01/11 06:54:32;;;;;;;;;;;2.30;41.40;;;;;;5054858;28;19920;-78
2022/01/11 06:56:58;;;;;;;;;;;2.40;41.30;;;;;;5055197;28;19925;-79
2022/01/11 06:59:25;;;;;;;;;;;2.40;40.80;;;;;;5033202;28;19925;-78
2022/01/11 07:01:52;;;;;;;;;;;2.50;40.90;;;;;;5041478;28;20274;-78
2022/01/11 07:04:19;;;;;;;;;;;2.50;40.80;;;;;;5028157;28;19931;-79
2022/01/11 07:06:46;;;;;;;;;;;2.50;40.80;;;;;;5053328;28;19924;-78
2022/01/11 07:09:13;;;;;;;;;;;2.50;40.80;;;;;;5055878;28;20464;-76
2022/01/11 07:11:40;;;;;;;;;;;2.50;40.90;;;;;;5073898;28;20325;-78
2022/01/11 07:14:07;;;;;;;;;;;2.50;41.20;;;;;;5056671;28;19920;-78
2022/01/11 07:16:33;;;;;;;;;;;2.50;41.10;;;;;;5037194;28;19927;-78
2022/01/11 07:19:04;;;;;;;;;;;2.40;41.30;;;;;;5046523;28;19951;-78
2022/01/11 07:21:34;;;;;;;;;;;2.40;41.70;;;;;;5050642;28;20403;-77
2022/01/11 07:24:02;;;;;;;;;;;2.40;41.80;;;;;;5042574;28;20015;-78
2022/01/11 07:26:29;;;;;;;;;;;2.40;41.70;;;;;;5045747;28;19921;-78
2022/01/11 07:28:56;;;;;;;;;;;2.30;41.80;;;;;;5057864;28;19992;-79
2022/01/11 07:31:22;;;;;;;;;;;2.30;42.10;;;;;;5055702;28;19927;-78
2022/01/11 07:33:49;;;;;;;;;;;2.30;42.00;;;;;;5040794;28;19928;-79
2022/01/11 07:36:16;;;;;;;;;;;2.30;41.90;;;;;;5027195;28;20336;-78
2022/01/11 07:38:43;;;;;;;;;;;2.40;41.90;;;;;;5037371;28;19929;-79
2022/01/11 07:41:10;;;;;;;;;;;2.40;41.70;;;;;;5045829;28;19921;-79
2022/01/11 07:43:37;;;;;;;;;;;2.40;41.80;;;;;;5033462;28;19924;-79
2022/01/11 07:46:04;;;;;;;;;;;2.40;42.10;;;;;;5044233;28;19925;-79
2022/01/11 07:48:31;;;;;;;;;;;2.40;41.70;;;;;;5062621;28;19920;-79
2022/01/11 07:50:57;;;;;;;;;;;2.40;42.00;;;;;;5038757;28;20271;-78
2022/01/11 07:53:24;;;;;;;;;;;2.40;41.80;;;;;;5038093;28;19925;-79
2022/01/11 07:55:51;;;;;;;;;;;2.70;41.30;;;;;;5041709;28;19927;-78
2022/01/11 07:58:18;;;;;;;;;;;3.20;40.60;;;;;;5033020;28;19925;-79
2022/01/11 08:00:44;;;;;;;;;;;3.70;39.20;;;;;;5035760;28;19924;-77
2022/01/11 08:03:11;;;;;;;;;;;4.00;38.40;;;;;;5053283;28;19970;-77
2022/01/11 08:05:38;;;;;;;;;;;4.00;38.20;;;;;;5053175;28;19963;-79
2022/01/11 08:08:06;;;;;;;;;;;4.00;38.00;;;;;;5035943;28;19924;-79
2022/01/11 08:10:32;;;;;;;;;;;3.90;38.50;;;;;;5035259;28;19924;-77
2022/01/11 08:13:02;;;;;;;;;;;3.90;38.60;;;;;;5021652;28;19928;-77
2022/01/11 08:15:29;;;;;;;;;;;3.90;38.40;;;;;;5035265;28;19929;-79
2022/01/11 08:17:57;;;;;;;;;;;4.00;38.50;;;;;;5030493;28;19921;-79
2022/01/11 08:20:23;;;;;;;;;;;4.00;38.00;;;;;;5049042;28;19931;-77
2022/01/11 08:22:53;;;;;;;;;;;4.10;38.30;;;;;;5048466;28;20369;-79
2022/01/11 08:25:24;;;;;;;;;;;4.30;37.50;;;;;;5036137;28;19928;-77
2022/01/11 08:27:51;;;;;;;;;;;4.30;37.40;;;;;;5034604;28;19990;-79
2022/01/11 08:30:18;;;;;;;;;;;4.40;37.50;;;;;;5035322;28;19929;-79
2022/01/11 08:32:45;;;;;;;;;;;4.40;37.60;;;;;;5023794;28;19921;-80
2022/01/11 08:35:12;;;;;;;;;;;4.60;37.00;;;;;;5050225;28;19928;-80
2022/01/11 08:37:39;;;;;;;;;;;4.60;36.70;;;;;;5025050;28;19924;-77
2022/01/11 08:40:06;;;;;;;;;;;4.70;36.60;;;;;;5060589;28;19920;-78
2022/01/11 08:42:33;;;;;;;;;;;4.70;36.50;;;;;;5047583;28;20291;-79
2022/01/11 08:45:00;;;;;;;;;;;4.70;36.40;;;;;;5035453;28;19966;-79
2022/01/11 08:47:30;;;;;;;;;;;4.80;36.50;;;;;;5027314;28;19921;-80
2022/01/11 08:49:59;;;;;;;;;;;4.90;36.20;;;;;;5034961;28;20069;-79
2022/01/11 08:52:26;;;;;;;;;;;5.00;36.20;;;;;;5047390;28;19986;-77
2022/01/11 08:54:53;;;;;;;;;;;5.00;36.20;;;;;;5050869;28;19921;-77
2022/01/11 08:57:21;;;;;;;;;;;5.00;36.20;;;;;;5027837;28;19959;-79
2022/01/11 08:59:48;;;;;;;;;;;5.10;36.00;;;;;;5027971;28;20390;-79
2022/01/11 09:02:15;;;;;;;;;;;5.20;36.00;;;;;;5037403;28;19924;-79
2022/01/11 09:04:43;;;;;;;;;;;5.30;35.80;;;;;;5034040;28;19927;-80
2022/01/11 09:07:10;;;;;;;;;;;5.30;35.80;;;;;;5030368;28;20415;-77
2022/01/11 09:09:38;;;;;;;;;;;5.30;35.80;;;;;;5028346;28;19979;-76
2022/01/11 09:12:08;;;;;;;;;;;5.40;35.80;;;;;;5032529;28;19928;-77
2022/01/11 09:14:36;;;;;;;;;;;5.30;35.40;;;;;;5039181;28;19928;-78
2022/01/11 09:17:04;;;;;;;;;;;5.50;35.40;;;;;;5068573;28;20419;-78
2022/01/11 09:19:33;;;;;;;;;;;5.50;34.90;;;;;;5045025;28;20253;-79
2022/01/11 09:22:00;;;;;;;;;;;5.60;35.30;;;;;;5049005;28;19924;-79
2022/01/11 09:24:33;;;;;;;;;;;5.70;35.00;;;;;;5044792;28;20473;-79
2022/01/11 09:27:02;;;;;;;;;;;5.70;34.50;;;;;;5038313;28;19925;-80
2022/01/11 09:29:32;;;;;;;;;;;5.70;34.90;;;;;;5059035;28;20355;-79
2022/01/11 09:32:00;;;;;;;;;;;5.80;34.80;;;;;;5020361;28;19932;-79
2022/01/11 09:34:27;;;;;;;;;;;5.90;34.70;;;;;;5030971;28;19925;-80
2022/01/11 09:36:54;;;;;;;;;;;6.00;34.30;;;;;;5034106;28;19933;-78
2022/01/11 09:39:21;;;;;;;;;;;6.00;34.00;;;;;;5033662;28;19932;-80
2022/01/11 09:41:48;;;;;;;;;;;6.10;33.80;;;;;;5018248;28;19925;-77
2022/01/11 09:44:15;;;;;;;;;;;6.10;33.40;;;;;;5017170;28;20325;-79
2022/01/11 09:46:42;;;;;;;;;;;6.20;33.60;;;;;;5021390;28;19933;-77
2022/01/11 09:49:09;;;;;;;;;;;6.20;33.50;;;;;;5048891;28;19937;-80
2022/01/11 09:51:36;;;;;;;;;;;6.30;33.60;;;;;;5033727;28;19924;-80
2022/01/11 09:54:05;;;;;;;;;;;6.30;33.30;;;;;;5051857;28;19925;-80
2022/01/11 09:56:36;;;;;;;;;;;6.40;33.80;;;;;;5033531;28;20483;-79
2022/01/11 09:59:03;;;;;;;;;;;6.50;33.30;;;;;;5021537;28;19929;-80
2022/01/11 10:01:30;;;;;;;;;;;6.60;33.00;;;;;;5014317;28;19925;-80
2022/01/11 10:04:04;;;;;;;;;;;6.70;32.60;;;;;;5026018;28;19925;-80
2022/01/11 10:06:36;;;;;;;;;;;6.80;32.20;;;;;;5033443;28;20467;-79
2022/01/11 10:09:08;;;;;;;;;;;6.90;32.40;;;;;;5051985;28;19928;-77
2022/01/11 10:11:37;;;;;;;;;;;6.90;32.70;;;;;;5036389;28;19947;-79
2022/01/11 10:14:25;;;;;;;;;;;7.00;32.40;;;;;;5021996;28;20368;-80
2022/01/11 10:17:12;;;;;;;;;;;7.10;32.60;;;;;;5017335;28;20452;-77
2022/01/11 10:19:44;;;;;;;;;;;7.20;32.10;;;;;;5011036;28;19934;-80
2022/01/11 10:22:19;;;;;;;;;;;7.30;32.10;;;;;;5027551;28;19929;-81
2022/01/11 10:24:47;;;;;;;;;;;7.30;32.00;;;;;;5032442;28;19975;-78
2022/01/11 10:27:22;;;;;;;;;;;7.30;31.40;;;;;;5034051;28;19929;-79
2022/01/11 10:29:53;;;;;;;;;;;7.40;31.20;;;;;;5050142;28;19925;-80
2022/01/11 10:32:32;;;;;;;;;;;7.40;31.90;;;;;;5034419;28;19925;-80
2022/01/11 10:35:19;;;;;;;;;;;7.40;31.50;;;;;;5035242;28;19979;-77
2022/01/11 10:38:06;;;;;;;;;;;7.50;32.00;;;;;;5020000;28;19929;-80
2022/01/11 10:40:35;;;;;;;;;;;7.70;31.00;;;;;;5030725;28;20462;-77
2022/01/11 10:43:10;;;;;;;;;;;7.70;31.00;;;;;;5024236;28;20278;-76
2022/01/11 10:45:46;;;;;;;;;;;7.80;30.70;;;;;;5033041;28;19925;-80
2022/01/11 10:48:25;;;;;;;;;;;7.80;30.20;;;;;;5017753;28;19932;-80
2022/01/11 10:50:56;;;;;;;;;;;7.90;30.60;;;;;;5047308;28;19932;-80
2022/01/11 10:53:38;;;;;;;;;;;7.90;30.50;;;;;;5055014;28;20422;-79
2022/01/11 10:56:06;;;;;;;;;;;8.00;30.30;;;;;;5032864;28;19933;-79
2022/01/11 10:59:02;;;;;;;;;;;8.10;30.60;;;;;;5041914;28;20058;-80
2022/01/11 11:01:32;;;;;;;;;;;8.10;30.60;;;;;;5052423;28;20484;-80
2022/01/11 11:04:00;;;;;;;;;;;8.20;30.20;;;;;;5034562;28;19982;-79
2022/01/11 11:06:27;;;;;;;;;;;8.30;30.00;;;;;;5032887;28;20008;-79
2022/01/11 11:08:54;;;;;;;;;;;8.50;30.00;;;;;;5022035;28;20325;-79
2022/01/11 11:11:23;;;;;;;;;;;8.50;29.80;;;;;;5020440;28;19925;-78
2022/01/11 11:13:54;;;;;;;;;;;8.50;29.90;;;;;;5033880;28;19932;-79
2022/01/11 11:16:23;;;;;;;;;;;8.70;29.90;;;;;;5033850;28;20381;-79
2022/01/11 11:18:54;;;;;;;;;;;8.80;29.30;;;;;;5055601;28;20421;-79
2022/01/11 11:21:22;;;;;;;;;;;8.90;29.40;;;;;;5035659;28;19975;-78
2022/01/11 11:23:54;;;;;;;;;;;9.00;29.20;;;;;;5037982;28;19936;-78
2022/01/11 11:26:21;;;;;;;;;;;9.10;28.60;;;;;;5028715;28;19925;-80
2022/01/11 11:28:49;;;;;;;;;;;9.20;28.60;;;;;;5033229;28;20443;-78
2022/01/11 11:31:17;;;;;;;;;;;9.30;28.50;;;;;;5029354;28;19926;-79
2022/01/11 11:33:44;;;;;;;;;;;9.30;28.40;;;;;;5033258;28;19957;-78
2022/01/11 11:36:12;;;;;;;;;;;9.40;28.30;;;;;;5036502;28;20293;-78
2022/01/11 11:38:43;;;;;;;;;;;9.60;27.90;;;;;;5031777;28;20340;-78
2022/01/11 11:41:10;;;;;;;;;;;9.60;27.90;;;;;;5033301;28;19933;-78
2022/01/11 11:43:37;;;;;;;;;;;9.70;27.70;;;;;;5032161;28;19999;-80
2022/01/11 11:46:04;;;;;;;;;;;9.80;27.90;;;;;;5032686;28;20411;-78
2022/01/11 11:48:31;;;;;;;;;;;9.90;28.40;;;;;;5048802;28;19929;-79
2022/01/11 11:51:01;;;;;;;;;;;10.00;27.90;;;;;;5060282;28;19926;-77
2022/01/11 11:53:29;;;;;;;;;;;10.10;26.70;;;;;;5056926;28;19928;-76
2022/01/11 11:56:33;;;;;;;;;;;10.10;27.50;;;;;;5049143;28;19926;-79
2022/01/11 11:59:05;;;;;;;;;;;10.30;26.50;;;;;;4989807;28;20397;-77
2022/01/11 12:01:42;;;;;;;;;;;10.40;26.30;;;;;;5018812;28;20297;-79
2022/01/11 12:04:10;;;;;;;;;;;10.40;25.80;;;;;;5034607;28;19961;-79
2022/01/11 12:06:37;;;;;;;;;;;10.60;26.40;;;;;;5064019;28;19924;-76
2022/01/11 12:09:07;;;;;;;;;;;10.60;26.20;;;;;;5048724;28;19925;-79
2022/01/11 12:11:38;;;;;;;;;;;10.70;26.50;;;;;;5061029;28;20452;-80
2022/01/11 12:14:05;;;;;;;;;;;10.80;25.80;;;;;;5023890;28;19947;-80
2022/01/11 12:16:38;;;;;;;;;;;10.80;26.10;;;;;;5028960;28;19947;-79
2022/01/11 12:19:07;;;;;;;;;;;10.90;26.00;;;;;;5020565;28;19926;-79
2022/01/11 12:22:03;;;;;;;;;;;11.00;25.70;;;;;;5020735;28;19933;-77
2022/01/11 12:24:34;;;;;;;;;;;11.00;25.40;;;;;;5036818;28;19925;-79
2022/01/11 12:27:01;;;;;;;;;;;11.10;25.60;;;;;;5055904;28;19931;-80
2022/01/11 12:29:28;;;;;;;;;;;11.10;25.40;;;;;;5072571;28;19935;-80
2022/01/11 12:31:55;;;;;;;;;;;11.10;25.80;;;;;;5058848;28;20426;-80
2022/01/11 12:34:40;;;;;;;;;;;11.20;25.70;;;;;;5071261;28;19925;-77
2022/01/11 12:37:19;;;;;;;;;;;11.30;25.00;;;;;;5069879;28;19928;-79
2022/01/11 12:40:05;;;;;;;;;;;11.40;25.00;;;;;;5026880;28;19991;-79
2022/01/11 12:42:32;;;;;;;;;;;11.60;25.10;;;;;;5034072;28;19925;-80
2022/01/11 12:47:39;;;;;;;;;;;11.70;24.70;;;;;;5044622;28;19931;-79
2022/01/11 12:50:08;;;;;;;;;;;11.80;24.40;;;;;;5038727;28;19979;-77
2022/01/11 12:52:35;;;;;;;;;;;11.90;24.60;;;;;;5054969;28;19924;-80
2022/01/11 12:55:03;;;;;;;;;;;12.00;24.10;;;;;;5037931;28;20443;-80
2022/01/11 12:57:30;;;;;;;;;;;12.00;25.10;;;;;;5032678;28;19936;-81
2022/01/11 12:59:59;;;;;;;;;;;12.00;24.60;;;;;;5025287;28;19925;-77
2022/01/11 13:02:26;;;;;;;;;;;12.10;24.30;;;;;;5040283;28;19992;-79
2022/01/11 13:04:55;;;;;;;;;;;12.10;24.10;;;;;;5034834;28;19994;-79
2022/01/11 13:07:25;;;;;;;;;;;12.10;24.30;;;;;;5026455;28;20392;-79
2022/01/11 13:10:07;;;;;;;;;;;12.20;24.30;;;;;;5020823;28;19966;-80
2022/01/11 13:12:52;;;;;;;;;;;12.30;24.20;;;;;;5044838;28;19928;-79
2022/01/11 13:15:25;;;;;;;;;;;12.40;24.00;;;;;;5046445;28;20396;-79
2022/01/11 13:17:58;;;;;;;;;;;12.40;23.90;;;;;;5036620;28;19924;-77
2022/01/11 13:21:01;;;;;;;;;;;12.40;23.70;;;;;;5048506;28;19925;-80
2022/01/11 13:23:34;;;;;;;;;;;12.40;23.20;;;;;;5036727;28;19932;-81
2022/01/11 13:26:04;;;;;;;;;;;12.40;24.00;;;;;;5042679;28;19991;-79
2022/01/11 13:28:38;;;;;;;;;;;12.40;24.20;;;;;;5034242;28;19930;-77
2022/01/11 13:31:08;;;;;;;;;;;12.50;23.40;;;;;;5033239;28;19933;-79
2022/01/11 13:33:37;;;;;;;;;;;12.50;23.50;;;;;;5050312;28;20011;-80
2022/01/11 13:36:10;;;;;;;;;;;12.40;23.80;;;;;;5037845;28;19929;-79
2022/01/11 13:38:40;;;;;;;;;;;12.40;23.90;;;;;;5031692;28;19925;-80
2022/01/11 13:41:09;;;;;;;;;;;12.40;24.10;;;;;;5061082;28;19925;-79
2022/01/11 13:43:58;;;;;;;;;;;12.30;23.50;;;;;;5018758;28;20664;-79
2022/01/11 13:46:27;;;;;;;;;;;12.30;23.50;;;;;;5032496;28;20345;-80
2022/01/11 13:48:55;;;;;;;;;;;12.10;23.00;;;;;;5054490;28;19928;-77
2022/01/11 13:51:24;;;;;;;;;;;12.00;23.70;;;;;;5035211;28;19925;-77
2022/01/11 13:53:56;;;;;;;;;;;12.00;23.80;;;;;;5039702;28;20400;-80
2022/01/11 13:56:24;;;;;;;;;;;12.00;24.30;;;;;;5056615;28;20410;-79
2022/01/11 13:58:52;;;;;;;;;;;12.00;24.40;;;;;;5056641;28;19929;-80
2022/01/11 14:01:20;;;;;;;;;;;11.90;24.70;;;;;;5045282;28;19935;-79
2022/01/11 14:03:51;;;;;;;;;;;11.90;24.00;;;;;;5057233;28;20396;-79
2022/01/11 14:06:19;;;;;;;;;;;11.90;25.10;;;;;;5046359;28;19952;-79
2022/01/11 14:08:49;;;;;;;;;;;12.00;25.20;;;;;;5038422;28;19929;-77
2022/01/11 14:11:26;;;;;;;;;;;12.20;25.20;;;;;;5031750;28;19956;-78
2022/01/11 14:13:57;;;;;;;;;;;12.20;25.30;;;;;;5035709;28;19932;-81
2022/01/11 14:16:44;;;;;;;;;;;12.20;25.20;;;;;;5043332;28;20012;-80
2022/01/11 14:19:11;;;;;;;;;;;12.10;24.50;;;;;;5037394;28;19936;-79
2022/01/11 14:21:48;;;;;;;;;;;12.00;24.90;;;;;;5037450;28;19929;-79
2022/01/11 14:24:15;;;;;;;;;;;11.90;25.10;;;;;;5040784;28;19947;-80
2022/01/11 14:26:41;;;;;;;;;;;11.90;25.20;;;;;;5053061;28;19962;-77
2022/01/11 14:29:09;;;;;;;;;;;11.90;25.60;;;;;;5040675;28;19932;-79
2022/01/11 14:31:36;;;;;;;;;;;11.90;25.70;;;;;;5046269;28;20389;-77
2022/01/11 14:34:10;;;;;;;;;;;11.90;25.50;;;;;;5038242;28;20011;-77
2022/01/11 14:36:38;;;;;;;;;;;11.90;25.80;;;;;;5041861;28;19932;-80
2022/01/11 14:39:07;;;;;;;;;;;11.80;25.90;;;;;;5045899;28;19929;-80
2022/01/11 14:41:42;;;;;;;;;;;11.80;25.30;;;;;;5049445;28;19929;-80
2022/01/11 14:44:13;;;;;;;;;;;11.70;25.00;;;;;;5050499;28;19928;-79
2022/01/11 14:46:50;;;;;;;;;;;11.70;25.50;;;;;;5041095;28;20016;-80
2022/01/11 14:49:19;;;;;;;;;;;11.80;26.00;;;;;;5046836;28;19936;-80